createdAt,value
2023-05-07T00:00:25.428Z,24.50
2023-05-07T00:02:52.897Z,21.58
2023-05-07T00:05:20.959Z,16.60
2023-05-07T00:07:49.072Z,17.92
2023-05-07T00:10:16.604Z,21.80
2023-05-07T00:12:44.098Z,17.67
2023-05-07T00:15:12.288Z,15.40
2023-05-07T00:17:40.016Z,16.27
2023-05-07T00:20:08.820Z,16.55
2023-05-07T00:22:36.515Z,15.82
2023-05-07T00:25:04.241Z,17.58
2023-05-07T00:27:32.075Z,11.38
2023-05-07T00:29:59.406Z,13.75
2023-05-07T00:32:26.754Z,12.80
2023-05-07T00:34:54.335Z,14.95
2023-05-07T00:37:21.821Z,14.90
2023-05-07T00:39:49.138Z,14.73
2023-05-07T00:42:17.255Z,14.82
2023-05-07T00:44:44.858Z,11.75
2023-05-07T00:47:13.269Z,18.10
2023-05-07T00:49:43.667Z,14.63
2023-05-07T00:52:14.156Z,12.50
2023-05-07T00:54:42.590Z,17.45
2023-05-07T00:57:12.403Z,10.75
2023-05-07T00:59:41.843Z,13.38
2023-05-07T01:02:09.330Z,16.17
2023-05-07T01:04:37.747Z,14.65
2023-05-07T01:07:06.506Z,11.50
2023-05-07T01:09:36.379Z,12.98
2023-05-07T01:12:05.057Z,14.10
2023-05-07T01:14:34.114Z,13.55
2023-05-07T01:17:02.093Z,9.18
2023-05-07T01:19:31.445Z,10.38
2023-05-07T01:22:08.430Z,15.13
2023-05-07T01:24:37.438Z,11.27
2023-05-07T01:27:05.465Z,6.38
2023-05-07T01:29:32.975Z,8.57
2023-05-07T01:32:02.323Z,9.48
2023-05-07T01:34:33.920Z,6.45
2023-05-07T01:37:02.283Z,8.00
2023-05-07T01:39:31.086Z,9.63
2023-05-07T01:41:59.810Z,9.38
2023-05-07T01:44:28.193Z,7.18
2023-05-07T01:46:56.200Z,14.93
2023-05-07T01:49:23.625Z,10.00
2023-05-07T01:51:51.787Z,8.27
2023-05-07T01:54:19.371Z,10.23
2023-05-07T01:56:49.118Z,8.88
2023-05-07T01:59:16.511Z,7.63
2023-05-07T02:01:43.856Z,8.98
2023-05-07T02:04:11.590Z,8.93
2023-05-07T02:06:39.008Z,8.85
2023-05-07T02:09:06.591Z,8.07
2023-05-07T02:11:33.983Z,10.27
2023-05-07T02:14:01.514Z,9.85
2023-05-07T02:16:29.028Z,11.20
2023-05-07T02:18:56.541Z,7.82
2023-05-07T02:21:23.866Z,7.55
2023-05-07T02:23:51.791Z,8.00
2023-05-07T02:26:19.794Z,8.80
2023-05-07T02:28:47.155Z,11.38
2023-05-07T02:31:14.534Z,7.35
2023-05-07T02:33:42.076Z,10.50
2023-05-07T02:36:11.006Z,7.35
2023-05-07T02:38:38.827Z,8.23
2023-05-07T02:41:06.306Z,8.35
2023-05-07T02:43:33.854Z,8.23
2023-05-07T02:46:09.169Z,8.93
2023-05-07T02:48:36.650Z,6.47
2023-05-07T02:51:04.864Z,10.60
2023-05-07T02:53:32.711Z,10.57
2023-05-07T02:56:01.331Z,9.23
2023-05-07T02:58:28.978Z,14.45
2023-05-07T03:00:56.556Z,8.18
2023-05-07T03:03:24.011Z,12.90
2023-05-07T03:05:51.432Z,12.60
2023-05-07T03:08:18.902Z,10.25
2023-05-07T03:10:46.420Z,12.80
2023-05-07T03:13:13.882Z,12.90
2023-05-07T03:15:41.373Z,11.32
2023-05-07T03:18:09.006Z,11.73
2023-05-07T03:20:37.468Z,13.85
2023-05-07T03:23:05.193Z,12.40
2023-05-07T03:25:33.432Z,12.27
2023-05-07T03:28:01.060Z,13.48
2023-05-07T03:30:28.531Z,18.65
2023-05-07T03:32:55.889Z,14.73
2023-05-07T03:35:23.754Z,15.80
2023-05-07T03:37:51.883Z,16.55
2023-05-07T03:40:19.284Z,19.92
2023-05-07T03:42:46.681Z,16.10
2023-05-07T03:45:14.168Z,14.77
2023-05-07T03:47:41.630Z,15.20
2023-05-07T03:50:09.596Z,21.00
2023-05-07T03:52:37.685Z,17.75
2023-05-07T03:55:05.467Z,17.60
2023-05-07T03:57:32.966Z,17.67
2023-05-07T04:00:00.314Z,21.40
2023-05-07T04:02:27.755Z,19.80
2023-05-07T04:04:55.803Z,16.35
2023-05-07T04:07:23.516Z,16.33
2023-05-07T04:09:51.001Z,19.67
2023-05-07T04:12:18.310Z,16.48
2023-05-07T04:14:46.210Z,16.38
2023-05-07T04:17:13.590Z,20.75
2023-05-07T04:19:40.962Z,18.42
2023-05-07T04:22:08.358Z,19.75
2023-05-07T04:24:35.812Z,18.70
2023-05-07T04:27:03.132Z,18.80
2023-05-07T04:29:30.602Z,15.30
2023-05-07T04:31:59.865Z,17.27
2023-05-07T04:34:27.256Z,16.02
2023-05-07T04:36:54.590Z,17.52
2023-05-07T04:39:22.095Z,18.70
2023-05-07T04:41:49.914Z,17.35
2023-05-07T04:44:17.839Z,18.42
2023-05-07T04:46:45.300Z,16.67
2023-05-07T04:49:12.640Z,18.67
2023-05-07T04:51:40.212Z,20.75
2023-05-07T04:54:07.581Z,17.25
2023-05-07T04:56:35.044Z,21.65
2023-05-07T04:59:03.340Z,15.55
2023-05-07T05:01:30.852Z,21.75
2023-05-07T05:03:58.346Z,15.65
2023-05-07T05:06:25.838Z,18.70
2023-05-07T05:08:53.309Z,17.95
2023-05-07T05:11:20.846Z,19.58
2023-05-07T05:13:50.266Z,21.88
2023-05-07T05:16:17.766Z,21.83
2023-05-07T05:18:45.216Z,23.88
2023-05-07T05:21:12.640Z,22.38
2023-05-07T05:23:40.174Z,20.10
2023-05-07T05:26:07.492Z,19.05
2023-05-07T05:28:34.776Z,24.70
2023-05-07T05:31:02.658Z,19.92
2023-05-07T05:33:30.084Z,19.40
2023-05-07T05:35:57.474Z,26.63
2023-05-07T05:38:24.783Z,23.83
2023-05-07T05:40:52.683Z,21.98
2023-05-07T05:43:20.939Z,20.27
2023-05-07T05:45:48.351Z,22.40
2023-05-07T05:48:15.962Z,22.85
2023-05-07T05:50:43.669Z,18.42
2023-05-07T05:53:11.027Z,19.60
2023-05-07T05:55:38.513Z,20.35
2023-05-07T05:58:06.099Z,18.08
2023-05-07T06:00:33.532Z,20.27
2023-05-07T06:03:01.145Z,20.83
2023-05-07T06:05:28.645Z,23.30
2023-05-07T06:07:56.586Z,20.33
2023-05-07T06:10:25.333Z,19.30
2023-05-07T06:12:52.720Z,20.88
2023-05-07T06:15:20.309Z,21.98
2023-05-07T06:17:47.700Z,22.35
2023-05-07T06:20:15.057Z,20.02
2023-05-07T06:22:42.555Z,19.70
2023-05-07T06:25:10.322Z,18.95
2023-05-07T06:27:37.848Z,17.52
2023-05-07T06:30:05.808Z,19.98
2023-05-07T06:32:33.475Z,19.88
2023-05-07T06:35:01.061Z,22.33
2023-05-07T06:37:28.539Z,26.10
2023-05-07T06:39:57.576Z,21.73
2023-05-07T06:42:27.517Z,22.20
2023-05-07T06:44:57.930Z,27.42
2023-05-07T06:47:25.569Z,21.20
2023-05-07T06:49:52.912Z,17.02
2023-05-07T06:52:20.382Z,19.40
2023-05-07T06:54:47.721Z,17.65
2023-05-07T06:57:15.077Z,21.15
2023-05-07T06:59:42.565Z,16.95
2023-05-07T07:02:10.258Z,20.92
2023-05-07T07:04:37.573Z,21.30
2023-05-07T07:07:04.910Z,17.98
2023-05-07T07:09:32.813Z,30.52
2023-05-07T07:12:00.270Z,22.00
2023-05-07T07:14:27.566Z,31.75
2023-05-07T07:16:55.209Z,23.73
2023-05-07T07:19:22.725Z,20.50
2023-05-07T07:21:50.244Z,20.38
2023-05-07T07:24:22.029Z,21.52
2023-05-07T07:26:49.526Z,21.48
2023-05-07T07:29:17.189Z,21.98
2023-05-07T07:31:44.700Z,19.05
2023-05-07T07:34:12.014Z,18.63
2023-05-07T07:36:46.163Z,18.35
2023-05-07T07:39:14.262Z,17.73
2023-05-07T07:41:41.586Z,16.17
2023-05-07T07:44:10.222Z,18.77
2023-05-07T07:46:38.791Z,15.35
2023-05-07T07:49:06.185Z,17.05
2023-05-07T07:51:33.782Z,22.38
2023-05-07T07:54:02.179Z,20.55
2023-05-07T07:56:29.528Z,17.13
2023-05-07T07:58:56.849Z,18.08
2023-05-07T08:01:24.478Z,15.15
2023-05-07T08:03:51.901Z,16.90
2023-05-07T08:06:19.785Z,15.75
2023-05-07T08:08:47.138Z,13.50
2023-05-07T08:11:14.476Z,12.13
2023-05-07T08:13:41.912Z,12.13
2023-05-07T08:16:09.455Z,12.93
2023-05-07T08:18:36.779Z,12.80
2023-05-07T08:21:04.295Z,15.88
2023-05-07T08:23:31.799Z,11.90
2023-05-07T08:25:59.371Z,19.60
2023-05-07T08:28:26.999Z,18.75
2023-05-07T08:30:54.324Z,11.70
2023-05-07T08:33:22.324Z,10.82
2023-05-07T08:35:49.575Z,11.30
2023-05-07T08:38:17.071Z,13.65
2023-05-07T08:40:44.480Z,12.52
2023-05-07T08:43:15.632Z,14.13
2023-05-07T08:45:46.646Z,15.40
2023-05-07T08:48:17.332Z,13.25
2023-05-07T08:50:44.881Z,11.38
2023-05-07T08:53:13.404Z,9.48
2023-05-07T08:55:41.243Z,10.18
2023-05-07T08:58:08.940Z,6.43
2023-05-07T09:00:38.798Z,7.45
2023-05-07T09:03:06.393Z,6.97
2023-05-07T09:05:33.824Z,9.95
2023-05-07T09:08:04.005Z,12.85
2023-05-07T09:10:33.663Z,13.80
2023-05-07T09:13:01.464Z,9.00
2023-05-07T09:15:30.009Z,12.05
2023-05-07T09:18:02.559Z,9.07
2023-05-07T09:20:32.548Z,10.40
2023-05-07T09:22:59.955Z,11.55
2023-05-07T09:25:32.434Z,13.93
2023-05-07T09:28:01.159Z,9.35
2023-05-07T09:30:32.736Z,13.20
2023-05-07T09:33:02.128Z,10.27
2023-05-07T09:35:31.013Z,10.05
2023-05-07T09:38:01.683Z,8.57
2023-05-07T09:40:32.197Z,9.77
2023-05-07T09:43:14.987Z,11.20
2023-05-07T09:45:42.539Z,7.72
2023-05-07T09:48:11.303Z,9.43
2023-05-07T09:50:49.799Z,8.73
2023-05-07T09:53:18.528Z,7.25
2023-05-07T09:55:47.138Z,8.30
2023-05-07T09:58:16.064Z,9.25
2023-05-07T10:00:44.331Z,10.90
2023-05-07T10:03:12.858Z,8.88
2023-05-07T10:05:40.499Z,6.70
2023-05-07T10:08:08.873Z,9.48
2023-05-07T10:10:36.540Z,10.90
2023-05-07T10:13:07.094Z,9.98
2023-05-07T10:15:36.043Z,10.70
2023-05-07T10:18:05.462Z,8.75
2023-05-07T10:20:34.314Z,9.80
2023-05-07T10:23:05.816Z,9.98
2023-05-07T10:25:34.409Z,12.77
2023-05-07T10:28:13.610Z,13.13
2023-05-07T10:31:02.205Z,11.35
2023-05-07T10:33:32.076Z,10.93
2023-05-07T10:36:02.591Z,7.70
2023-05-07T10:38:31.375Z,8.88
2023-05-07T10:40:58.905Z,7.70
2023-05-07T10:43:26.389Z,11.88
2023-05-07T10:46:20.664Z,8.93
2023-05-07T10:49:09.431Z,9.60
2023-05-07T10:51:37.304Z,8.57
2023-05-07T10:54:10.816Z,9.48
2023-05-07T10:56:39.191Z,8.73
2023-05-07T10:59:33.433Z,8.27
2023-05-07T11:02:07.434Z,7.90
2023-05-07T11:04:36.239Z,8.43
2023-05-07T11:07:10.252Z,10.95
2023-05-07T11:09:52.965Z,11.05
2023-05-07T11:12:42.105Z,10.18
2023-05-07T11:15:14.372Z,9.98
2023-05-07T11:17:56.294Z,9.00
2023-05-07T11:20:51.745Z,10.55
2023-05-07T11:23:34.467Z,12.60
2023-05-07T11:26:05.978Z,7.95
2023-05-07T11:28:42.904Z,8.55
2023-05-07T11:31:11.776Z,9.80
2023-05-07T11:33:39.647Z,7.53
2023-05-07T11:36:09.653Z,9.15
2023-05-07T11:38:38.509Z,16.95
2023-05-07T11:41:06.284Z,8.68
2023-05-07T11:43:34.244Z,9.43
2023-05-07T11:46:13.635Z,9.35
2023-05-07T11:48:42.477Z,9.48
2023-05-07T11:51:10.162Z,5.88
2023-05-07T11:53:42.597Z,7.25
2023-05-07T11:56:14.856Z,5.95
2023-05-07T11:58:43.506Z,6.72
2023-05-07T12:01:12.369Z,10.88
2023-05-07T12:03:47.049Z,7.60
2023-05-07T12:06:18.378Z,7.63
2023-05-07T12:08:48.364Z,5.85
2023-05-07T12:11:19.025Z,5.93
2023-05-07T12:13:46.888Z,8.45
2023-05-07T12:16:15.239Z,7.88
2023-05-07T12:18:43.094Z,7.38
2023-05-07T12:21:11.000Z,5.30
2023-05-07T12:23:39.441Z,5.57
2023-05-07T12:26:07.791Z,6.95
2023-05-07T12:28:40.330Z,6.30
2023-05-07T12:31:08.934Z,6.88
2023-05-07T12:33:37.298Z,8.35
2023-05-07T12:36:07.728Z,7.18
2023-05-07T12:38:41.958Z,7.55
2023-05-07T12:41:11.144Z,9.93
2023-05-07T12:43:38.954Z,7.22
2023-05-07T12:46:08.236Z,6.32
2023-05-07T12:48:38.853Z,6.30
2023-05-07T12:51:07.780Z,9.23
2023-05-07T12:53:40.552Z,8.88
2023-05-07T12:56:07.968Z,6.07
2023-05-07T12:58:36.936Z,7.25
2023-05-07T13:01:10.853Z,9.32
2023-05-07T13:03:40.506Z,4.85
2023-05-07T13:06:13.860Z,7.32
2023-05-07T13:08:45.782Z,6.20
2023-05-07T13:11:13.795Z,7.10
2023-05-07T13:13:42.455Z,8.55
2023-05-07T13:16:11.980Z,8.52
2023-05-07T13:18:41.588Z,8.38
2023-05-07T13:21:09.178Z,4.57
2023-05-07T13:23:36.562Z,7.10
2023-05-07T13:26:08.449Z,9.00
2023-05-07T13:28:38.956Z,7.45
2023-05-07T13:31:06.683Z,7.57
2023-05-07T13:33:34.024Z,6.80
2023-05-07T13:36:01.827Z,8.82
2023-05-07T13:38:29.133Z,7.15
2023-05-07T13:40:56.908Z,7.38
2023-05-07T13:43:24.550Z,7.60
2023-05-07T13:45:51.932Z,5.82
2023-05-07T13:48:19.508Z,7.57
2023-05-07T13:50:46.856Z,7.93
2023-05-07T13:53:14.222Z,7.07
2023-05-07T13:55:41.712Z,9.25
2023-05-07T13:58:09.072Z,5.75
2023-05-07T14:00:36.601Z,6.25
2023-05-07T14:03:05.809Z,6.78
2023-05-07T14:05:33.222Z,8.82
2023-05-07T14:08:00.942Z,7.35
2023-05-07T14:10:28.620Z,6.75
2023-05-07T14:12:56.154Z,6.15
2023-05-07T14:15:23.502Z,11.48
2023-05-07T14:17:50.864Z,5.32
2023-05-07T14:20:18.271Z,6.60
2023-05-07T14:22:46.208Z,6.15
2023-05-07T14:25:14.071Z,6.78
2023-05-07T14:27:41.703Z,5.38
2023-05-07T14:30:09.479Z,5.68
2023-05-07T14:32:37.811Z,8.02
2023-05-07T14:35:05.832Z,8.48
2023-05-07T14:37:33.207Z,5.03
2023-05-07T14:40:01.198Z,4.47
2023-05-07T14:42:28.490Z,5.45
2023-05-07T14:44:55.928Z,5.97
2023-05-07T14:47:24.429Z,4.72
2023-05-07T14:49:52.236Z,5.90
2023-05-07T14:52:19.954Z,4.18
2023-05-07T14:54:47.504Z,5.38
2023-05-07T14:57:17.326Z,6.20
2023-05-07T14:59:44.869Z,5.07
2023-05-07T15:02:16.528Z,7.95
2023-05-07T15:04:47.153Z,4.82
2023-05-07T15:07:16.414Z,5.97
2023-05-07T15:09:44.570Z,8.50
2023-05-07T15:12:12.813Z,8.23
2023-05-07T15:14:41.147Z,5.63
2023-05-07T15:17:08.826Z,4.50
2023-05-07T15:19:36.163Z,4.93
2023-05-07T15:22:04.016Z,4.97
2023-05-07T15:24:31.922Z,3.67
2023-05-07T15:26:59.431Z,5.20
2023-05-07T15:29:26.819Z,8.88
2023-05-07T15:31:54.295Z,5.53
2023-05-07T15:34:23.512Z,7.80
2023-05-07T15:36:51.159Z,4.20
2023-05-07T15:39:18.658Z,3.78
2023-05-07T15:41:46.227Z,7.90
2023-05-07T15:44:13.740Z,3.72
2023-05-07T15:46:41.064Z,5.30
2023-05-07T15:49:08.579Z,5.65
2023-05-07T15:51:37.083Z,5.63
2023-05-07T15:54:04.745Z,4.82
2023-05-07T15:56:35.325Z,11.95
2023-05-07T15:59:02.673Z,5.40
2023-05-07T16:01:30.341Z,4.80
2023-05-07T16:03:58.073Z,5.38
2023-05-07T16:06:25.478Z,4.55
2023-05-07T16:08:52.813Z,6.45
2023-05-07T16:11:23.395Z,4.85
2023-05-07T16:13:53.645Z,4.60
2023-05-07T16:16:21.347Z,4.50
2023-05-07T16:18:48.759Z,4.75
2023-05-07T16:21:16.247Z,4.72
2023-05-07T16:23:43.516Z,4.75
2023-05-07T16:26:11.065Z,2.83
2023-05-07T16:28:38.608Z,3.60
2023-05-07T16:31:08.543Z,3.67
2023-05-07T16:33:36.407Z,3.05
2023-05-07T16:36:03.959Z,8.00
2023-05-07T16:38:33.220Z,10.57
2023-05-07T16:41:01.331Z,6.10
2023-05-07T16:43:28.802Z,3.75
2023-05-07T16:45:56.270Z,5.90
2023-05-07T16:48:23.630Z,8.20
2023-05-07T16:50:51.222Z,7.03
2023-05-07T16:53:18.613Z,10.75
2023-05-07T16:55:46.193Z,4.78
2023-05-07T16:58:13.744Z,3.72
2023-05-07T17:00:50.575Z,4.72
2023-05-07T17:03:19.241Z,4.40
2023-05-07T17:05:47.143Z,5.65
2023-05-07T17:08:14.749Z,5.93
2023-05-07T17:10:42.473Z,5.53
2023-05-07T17:13:09.858Z,6.05
2023-05-07T17:15:37.476Z,3.72
2023-05-07T17:18:04.992Z,4.68
2023-05-07T17:20:32.545Z,3.38
2023-05-07T17:22:59.881Z,9.65
2023-05-07T17:25:27.207Z,2.78
2023-05-07T17:27:54.674Z,7.18
2023-05-07T17:30:22.067Z,9.63
2023-05-07T17:32:52.003Z,4.13
2023-05-07T17:35:19.408Z,5.93
2023-05-07T17:37:52.780Z,3.03
2023-05-07T17:40:22.309Z,2.63
2023-05-07T17:42:51.320Z,4.05
2023-05-07T17:45:20.561Z,2.35
2023-05-07T17:47:47.895Z,5.75
2023-05-07T17:50:15.238Z,3.28
2023-05-07T17:52:42.759Z,2.95
2023-05-07T17:55:12.875Z,3.65
2023-05-07T17:57:41.232Z,3.60
2023-05-07T18:00:10.322Z,4.35
2023-05-07T18:02:38.229Z,2.95
2023-05-07T18:05:06.015Z,2.00
2023-05-07T18:07:33.865Z,4.45
2023-05-07T18:10:01.265Z,4.15
2023-05-07T18:12:28.569Z,7.80
2023-05-07T18:14:55.878Z,4.38
2023-05-07T18:17:24.395Z,6.05
2023-05-07T18:19:54.660Z,4.07
2023-05-07T18:22:22.267Z,4.43
2023-05-07T18:24:50.674Z,4.57
2023-05-07T18:27:18.613Z,5.00
2023-05-07T18:29:45.972Z,5.20
2023-05-07T18:32:13.963Z,3.85
2023-05-07T18:34:41.467Z,3.67
2023-05-07T18:37:09.065Z,5.00
2023-05-07T18:39:36.729Z,3.17
2023-05-07T18:42:05.421Z,3.42
2023-05-07T18:44:33.371Z,3.38
2023-05-07T18:47:00.738Z,5.70
2023-05-07T18:49:28.228Z,7.38
2023-05-07T18:51:55.524Z,7.32
2023-05-07T18:54:23.089Z,5.25
2023-05-07T18:56:50.584Z,3.30
2023-05-07T18:59:17.955Z,3.30
2023-05-07T19:01:46.105Z,17.08
2023-05-07T19:04:13.719Z,3.78
2023-05-07T19:06:41.117Z,8.15
2023-05-07T19:09:08.725Z,3.38
2023-05-07T19:11:36.651Z,2.92
2023-05-07T19:14:05.399Z,4.03
2023-05-07T19:16:36.203Z,4.18
2023-05-07T19:19:04.480Z,4.18
2023-05-07T19:21:32.161Z,5.88
2023-05-07T19:23:59.494Z,6.53
2023-05-07T19:26:26.812Z,4.63
2023-05-07T19:29:07.195Z,4.82
2023-05-07T19:31:41.534Z,7.70
2023-05-07T19:34:08.973Z,5.40
2023-05-07T19:36:38.329Z,3.72
2023-05-07T19:39:06.343Z,4.60
2023-05-07T19:41:33.812Z,6.13
2023-05-07T19:44:01.245Z,6.38
2023-05-07T19:46:29.024Z,6.07
2023-05-07T19:48:56.515Z,7.50
2023-05-07T19:51:24.395Z,4.20
2023-05-07T19:53:51.865Z,7.43
2023-05-07T19:56:19.408Z,4.53
2023-05-07T19:58:46.746Z,6.30
2023-05-07T20:01:14.249Z,5.70
2023-05-07T20:03:42.197Z,4.85
2023-05-07T20:06:09.654Z,4.50
2023-05-07T20:08:37.000Z,6.35
2023-05-07T20:11:04.575Z,10.68
2023-05-07T20:13:31.959Z,7.90
2023-05-07T20:16:03.305Z,7.40
2023-05-07T20:18:30.794Z,7.90
2023-05-07T20:20:58.217Z,8.15
2023-05-07T20:23:26.588Z,8.68
2023-05-07T20:25:54.152Z,6.63
2023-05-07T20:28:21.545Z,5.20
2023-05-07T20:41:31.368Z,7.07
2023-05-07T20:43:58.815Z,9.63
2023-05-07T20:46:27.683Z,9.10
2023-05-07T20:49:00.147Z,8.43
2023-05-07T20:51:27.801Z,11.02
2023-05-07T20:53:55.402Z,9.43
2023-05-07T20:56:22.781Z,13.38
2023-05-07T20:58:50.119Z,8.98
2023-05-07T21:01:17.673Z,11.48
2023-05-07T21:03:45.011Z,13.20
2023-05-07T21:06:12.660Z,9.50
2023-05-07T21:08:40.165Z,11.75
2023-05-07T21:11:09.884Z,18.50
2023-05-07T21:13:37.234Z,9.18
2023-05-07T21:16:05.029Z,10.13
2023-05-07T21:18:32.798Z,9.80
2023-05-07T21:21:00.106Z,11.10
2023-05-07T21:23:27.616Z,13.93
2023-05-07T21:25:55.191Z,15.30
2023-05-07T21:28:22.731Z,13.27
2023-05-07T21:30:50.130Z,10.18
2023-05-07T21:33:18.489Z,12.40
2023-05-07T21:35:46.003Z,22.42
2023-05-07T21:38:13.951Z,14.73
2023-05-07T21:40:41.380Z,19.40
2023-05-07T21:43:08.734Z,18.58
2023-05-07T21:45:36.110Z,15.45
2023-05-07T21:48:03.633Z,17.40
2023-05-07T21:50:31.118Z,19.95
2023-05-07T21:52:58.788Z,15.02
2023-05-07T21:55:26.164Z,23.38
2023-05-07T21:58:01.975Z,18.77
2023-05-07T22:00:32.977Z,20.50
2023-05-07T22:03:01.152Z,25.70
2023-05-07T22:05:28.718Z,22.67
2023-05-07T22:07:56.072Z,25.58
2023-05-07T22:10:24.081Z,28.40
2023-05-07T22:12:51.587Z,21.15
2023-05-07T22:15:19.271Z,26.27
2023-05-07T22:17:46.650Z,24.63
2023-05-07T22:20:14.837Z,21.98
2023-05-07T22:22:56.160Z,20.20
2023-05-07T22:25:28.082Z,26.45
2023-05-07T22:27:55.514Z,27.33
2023-05-07T22:30:23.344Z,25.40
2023-05-07T22:32:50.869Z,24.98
2023-05-07T22:35:18.298Z,19.85
2023-05-07T22:37:45.636Z,22.52
2023-05-07T22:40:13.792Z,24.25
2023-05-07T22:42:41.399Z,24.83
2023-05-07T22:45:09.297Z,29.13
2023-05-07T22:47:37.297Z,20.00
2023-05-07T22:50:06.526Z,21.05
2023-05-07T22:52:34.637Z,28.40
2023-05-07T22:55:02.189Z,25.85
2023-05-07T22:57:29.780Z,24.73
2023-05-07T22:59:57.554Z,27.83
2023-05-07T23:02:27.006Z,24.00
2023-05-07T23:04:54.952Z,26.55
2023-05-07T23:07:22.378Z,25.77
2023-05-07T23:09:49.991Z,20.92
2023-05-07T23:12:17.366Z,25.95
2023-05-07T23:14:44.796Z,23.65
2023-05-07T23:17:12.391Z,18.70
2023-05-07T23:19:40.149Z,24.83
2023-05-07T23:22:07.749Z,25.48
2023-05-07T23:24:35.212Z,21.27
2023-05-07T23:27:08.988Z,28.38
2023-05-07T23:29:36.348Z,25.85
2023-05-07T23:32:03.857Z,21.88
2023-05-07T23:34:31.864Z,26.20
2023-05-07T23:36:59.235Z,21.77
2023-05-07T23:39:26.929Z,25.65
2023-05-07T23:41:54.518Z,22.05
2023-05-07T23:44:21.895Z,31.13
2023-05-07T23:46:49.681Z,24.13
2023-05-07T23:49:17.280Z,17.90
2023-05-07T23:51:44.682Z,20.55
2023-05-07T23:54:12.181Z,21.75
2023-05-07T23:56:39.509Z,25.92
2023-05-07T23:59:07.079Z,21.08
